WetterOnline ( https://www.wetteronline.ch )

Wetter aktuell List

Aktuelles Wetter: List/Sylt (29m)

6-stündlich | Neueste Meldungen
Ortszeit Temperatur Wetter
Di, 31.01. 1:00 4.9° C bewölkt
Mo, 30.01. 19:00 4.7° C wolkig
Mo, 30.01. 13:00 5.9° C bewölkt
Mo, 30.01. 7:00 6.0° C bewölkt
Mo, 30.01. 1:00 6.5° C leichter Regen
So, 29.01. 19:00 5.9° C bedeckt
So, 29.01. 13:00 5.9° C bedeckt
So, 29.01. 7:00 5.0° C bewölkt
Ortszeit Temperatur Wetter
Di, 31.01. 5:30 5.1° C bedeckt
Di, 31.01. 5:20 5.1° C bedeckt
Di, 31.01. 5:10 5.1° C bedeckt
Di, 31.01. 5:00 5.0° C bedeckt
Di, 31.01. 4:50 5.0° C bedeckt
Di, 31.01. 4:40 4.9° C bedeckt
Di, 31.01. 4:30 4.8° C bedeckt
Di, 31.01. 4:00 5.0° C bewölkt
Di, 31.01. 3:30 4.5° C bewölkt
Di, 31.01. 3:00 4.5° C bewölkt
Di, 31.01. 2:30 4.8° C bewölkt
Ortszeit Relative Feuchte Sichtweite
Di, 31.01. 1:00 74% 19 km
Mo, 30.01. 19:00 73% 17 km
Mo, 30.01. 13:00 86% 13 km
Mo, 30.01. 7:00 82% 13 km
Mo, 30.01. 1:00 97% 3.1 km
So, 29.01. 19:00 88% 19 km
So, 29.01. 13:00 86% 27 km
So, 29.01. 7:00 99% 40 km
Ortszeit Relative Feuchte Sichtweite
Di, 31.01. 5:30 86% 18 km
Di, 31.01. 5:20 86% -
Di, 31.01. 5:10 86% -
Di, 31.01. 5:00 84% 24 km
Di, 31.01. 4:50 84% -
Di, 31.01. 4:40 85% -
Di, 31.01. 4:30 86% 20 km
Di, 31.01. 4:00 82% 25 km
Di, 31.01. 3:30 82% 23 km
Di, 31.01. 3:00 81% 21 km
Di, 31.01. 2:30 78% 17 km
Ortszeit Niederschlagsmenge Niederschlagsart
Di, 31.01. 1:00 0.9 l/m2 in 6 Std. Regen
Mo, 30.01. 19:00 2 l/m2 in 12 Std. Regen
Mo, 30.01. 13:00 2 l/m2 in 6 Std. Regen
Mo, 30.01. 7:00 3 l/m2 in 12 Std. Regen
Mo, 30.01. 1:00 2 l/m2 in 6 Std. Regen
So, 29.01. 19:00 0.1 l/m2 in 12 Std. -
So, 29.01. 13:00 0.1 l/m2 in 6 Std. Regen
So, 29.01. 7:00 1 l/m2 in 12 Std. Regen
Ortszeit Niederschlagsmenge Niederschlagsart
Di, 31.01. 5:30 0.0 l/m2 in 30 Min -
Di, 31.01. 5:20 keine Meldung -
Di, 31.01. 5:10 keine Meldung -
Di, 31.01. 5:00 0.0 l/m2 in 1 Std. -
Di, 31.01. 4:50 keine Meldung -
Di, 31.01. 4:40 keine Meldung -
Di, 31.01. 4:30 0.0 l/m2 in 30 Min -
Di, 31.01. 4:00 <0.05 l/m2 in 1 Std. Regen
Di, 31.01. 3:30 <0.05 l/m2 in 30 Min Schneeregen
Di, 31.01. 3:00 <0.05 l/m2 in 1 Std. Regen
Di, 31.01. 2:30 0.0 l/m2 in 30 Min -
Ortszeit Stärke Spitze Richtung
km/h Bft. km/h Grad Sektor
Di, 31.01. 1:00 43 6 97 310° NW
Mo, 30.01. 19:00 63 8 98 320° NW
Mo, 30.01. 13:00 47 6 90 320° NW
Mo, 30.01. 7:00 47 6 72 280° W
Mo, 30.01. 1:00 50 7 72 250° W
So, 29.01. 19:00 40 6 61 230° SW
So, 29.01. 13:00 32 5 47 250° W
So, 29.01. 7:00 19 3 33 270° W
Ortszeit Stärke Spitze Richtung
km/h Bft. km/h Grad Sektor
Di, 31.01. 5:30 24 4 33 270° W
Di, 31.01. 5:20 24 4 - 270° W
Di, 31.01. 5:10 26 4 - 270° W
Di, 31.01. 5:00 26 4 44 280° W
Di, 31.01. 4:50 26 4 - 280° W
Di, 31.01. 4:40 29 5 - 280° W
Di, 31.01. 4:30 30 5 44 280° W
Di, 31.01. 4:00 35 5 46 290° W
Di, 31.01. 3:30 36 5 47 300° NW
Di, 31.01. 3:00 32 5 47 310° NW
Di, 31.01. 2:30 29 5 43 310° NW
Ortszeit Untergrenze Bedeckung Gattung
total tief tief mittel hoch
Di, 31.01. 1:00 1380 m 7/8 7/8 - - -
Mo, 30.01. 19:00 1050 m 5/8 5/8 - - -
Mo, 30.01. 13:00 630 m 8/8 7/8 - - -
Mo, 30.01. 7:00 750 m 7/8 7/8 - - -
Mo, 30.01. 1:00 210 m 8/8 8/8 - - -
So, 29.01. 19:00 540 m 8/8 8/8 - - -
So, 29.01. 13:00 990 m 8/8 8/8 - - -
So, 29.01. 7:00 240 m 7/8 7/8 - - -
Ortszeit Bedeckungsgrad in Achtel und Wolkenuntergrenze
Di, 31.01. 5:30 8(2700m) 8(3900m)
Di, 31.01. 5:20 8(2700m) 8(3900m)
Di, 31.01. 5:10 8
Di, 31.01. 5:00 8(2700m) 8(3900m) 8(5700m)
Di, 31.01. 4:50 8(2700m) 8(3900m) 8(5700m)
Di, 31.01. 4:40 8
Di, 31.01. 4:30 8(3000m) 8(4200m)
Di, 31.01. 4:00 4(1080m) 8(3300m) 8(4200m)
Di, 31.01. 3:30 4(930m) 8(3600m) 8(3900m)
Di, 31.01. 3:00 3(810m) 7(1260m) 8(5100m)
Di, 31.01. 2:30 1(960m) 7(1380m) 8(5100m)
Ortszeit Luftdruck NN (hPa) Tendenz (hPa in 3 Std.)
Di, 31.01. 1:00 1015 + 1,4
Mo, 30.01. 19:00 1011 + 4,1
Mo, 30.01. 13:00 1003 + 1,7
Mo, 30.01. 7:00 1001 - 1,4
Mo, 30.01. 1:00 1003 - 3,8
So, 29.01. 19:00 1011 - 3,5
So, 29.01. 13:00 1018 - 2,2
So, 29.01. 7:00 1021 - 2,0
Ortszeit Luftdruck NN (hPa) Tendenz (hPa in 3 Std.)
Di, 31.01. 5:30 1014 - 1,1
Di, 31.01. 5:20 1014 keine Meldung
Di, 31.01. 5:10 1014 keine Meldung
Di, 31.01. 5:00 1014 - 1,1
Di, 31.01. 4:50 1014 keine Meldung
Di, 31.01. 4:40 1014 keine Meldung
Di, 31.01. 4:30 1014 - 0,9
Di, 31.01. 4:00 1015 - 0,2
Di, 31.01. 3:30 1015 0,0
Di, 31.01. 3:00 1015 + 0,4
Di, 31.01. 2:30 1015 + 0,7
Ortszeit Schneehöhe (cm)
Di, 31.01. 1:00 0
Mo, 30.01. 19:00 0
Mo, 30.01. 13:00 0
Mo, 30.01. 7:00 0
Mo, 30.01. 1:00 0
So, 29.01. 19:00 0
So, 29.01. 13:00 0
So, 29.01. 7:00 0
Ortszeit Schneehöhe (cm)
Di, 31.01. 5:30 0
Di, 31.01. 5:20 0
Di, 31.01. 5:10 0
Di, 31.01. 5:00 0
Di, 31.01. 4:50 0
Di, 31.01. 4:40 0
Di, 31.01. 4:30 0
Di, 31.01. 4:00 0
Di, 31.01. 3:30 0
Di, 31.01. 3:00 0
Di, 31.01. 2:30 0
Link zu dieser Seite / Seite empfehlen

Das Wetter in ...